Time;durP1;ratioP1;P1;durP2;ratioP2;P2;SDS_P1;SDS_P2;PMS_P1;PMS_P2;Temp;Humidity;BMP_temperature;BMP_pressure;BME280_temperature;BME280_humidity;BME280_pressure;Samples;Min_cycle;Max_cycle;Signal;HPM_P1;HPM_P2
2022/10/15 00:00:30;;;;;;;15.60;8.40;;;12.60;99.90;;;;;;4974532;28;20039;-87
2022/10/15 00:02:56;;;;;;;17.02;8.57;;;12.50;99.90;;;;;;4973632;28;20047;-87
2022/10/15 00:05:22;;;;;;;19.33;9.82;;;13.20;99.90;;;;;;4973578;28;20578;-87
2022/10/15 00:07:48;;;;;;;15.40;7.95;;;12.60;99.90;;;;;;4964947;28;20047;-87
2022/10/15 00:10:14;;;;;;;18.40;9.43;;;12.60;99.90;;;;;;4962227;28;20030;-87
2022/10/15 00:12:40;;;;;;;15.95;8.38;;;12.60;99.90;;;;;;4963033;28;20042;-87
2022/10/15 00:15:07;;;;;;;19.30;9.30;;;13.00;99.90;;;;;;4969115;28;21662;-87
2022/10/15 00:17:33;;;;;;;19.63;11.65;;;12.50;99.90;;;;;;4977649;28;20079;-89
2022/10/15 00:20:00;;;;;;;24.95;10.55;;;12.60;99.90;;;;;;4966160;28;20542;-88
2022/10/15 00:22:26;;;;;;;13.25;8.25;;;12.60;99.90;;;;;;4977028;28;20074;-92
2022/10/15 00:24:52;;;;;;;12.57;7.10;;;13.30;99.90;;;;;;4976571;28;20039;-89
2022/10/15 00:27:17;;;;;;;15.05;8.48;;;12.60;99.90;;;;;;4976786;28;20528;-87
2022/10/15 00:29:43;;;;;;;19.30;10.15;;;12.70;99.90;;;;;;4977905;28;20110;-87
2022/10/15 00:32:09;;;;;;;21.55;11.55;;;12.60;99.90;;;;;;4962283;28;20038;-87
2022/10/15 00:34:35;;;;;;;19.50;10.48;;;12.60;99.90;;;;;;4961055;28;20399;-90
2022/10/15 00:37:00;;;;;;;18.77;10.30;;;12.60;99.90;;;;;;4959656;28;20133;-86
2022/10/15 00:39:26;;;;;;;18.45;10.20;;;12.60;99.90;;;;;;4977453;28;20054;-88
2022/10/15 00:41:52;;;;;;;23.02;13.23;;;12.50;99.90;;;;;;4977205;28;20039;-88
2022/10/15 00:44:20;;;;;;;21.17;11.93;;;12.60;99.90;;;;;;4967020;28;20471;-86
2022/10/15 00:46:49;;;;;;;27.50;13.93;;;13.60;99.90;;;;;;4959924;28;20109;-88
2022/10/15 00:49:47;;;;;;;17.58;10.32;;;12.70;99.90;;;;;;4959731;28;20057;-87
2022/10/15 00:52:17;;;;;;;22.38;10.93;;;12.60;99.90;;;;;;4919448;29;20195;-87
2022/10/15 00:54:48;;;;;;;18.38;10.52;;;12.60;99.90;;;;;;4919865;29;20044;-89
2022/10/15 00:57:14;;;;;;;20.45;10.40;;;12.70;99.90;;;;;;4948712;29;20047;-86
2022/10/15 00:59:49;;;;;;;15.68;9.80;;;12.60;99.90;;;;;;4920890;29;20055;-88
2022/10/15 01:02:17;;;;;;;15.20;8.70;;;13.30;99.90;;;;;;4936651;29;20047;-87
2022/10/15 01:04:44;;;;;;;11.55;6.53;;;12.60;99.90;;;;;;4935890;29;20051;-88
2022/10/15 01:07:09;;;;;;;20.60;11.27;;;12.60;99.90;;;;;;4948753;29;20047;-87
2022/10/15 01:09:35;;;;;;;24.05;13.13;;;12.60;99.90;;;;;;4948266;29;20144;-87
2022/10/15 01:12:03;;;;;;;17.42;9.25;;;12.70;99.90;;;;;;4929788;29;20979;-87
2022/10/15 01:14:46;;;;;;;16.83;8.75;;;12.60;99.90;;;;;;4928730;29;20127;-87
2022/10/15 01:17:34;;;;;;;15.60;9.73;;;12.60;99.90;;;;;;4945640;29;20500;-87
2022/10/15 01:20:30;;;;;;;17.20;8.48;;;12.60;99.90;;;;;;4926955;28;20156;-89
2022/10/15 01:23:44;;;;;;;13.75;8.15;;;12.60;99.90;;;;;;4919526;29;20111;-88
2022/10/15 01:26:34;;;;;;;19.50;9.73;;;12.60;99.90;;;;;;4850153;29;20064;-88
2022/10/15 01:29:18;;;;;;;14.65;8.45;;;12.60;99.90;;;;;;4862030;29;20064;-87
2022/10/15 01:31:57;;;;;;;20.80;9.85;;;12.60;99.90;;;;;;4886863;29;20056;-90
2022/10/15 01:41:49;;;;;;;15.43;8.38;;;12.70;99.90;;;;;;4886235;29;20433;-86
2022/10/15 01:44:23;;;;;;;16.08;8.77;;;12.60;99.90;;;;;;4863939;29;20395;-86
2022/10/15 01:46:57;;;;;;;13.65;8.18;;;12.50;99.90;;;;;;4878444;29;20052;-87
2022/10/15 01:49:27;;;;;;;15.13;6.87;;;13.40;99.90;;;;;;4878310;29;20053;-87
2022/10/15 01:51:54;;;;;;;13.10;7.63;;;12.50;99.90;;;;;;4879103;29;20064;-88
2022/10/15 01:54:23;;;;;;;12.18;6.65;;;12.50;99.90;;;;;;4860562;29;20045;-87
2022/10/15 01:56:51;;;;;;;10.95;5.90;;;12.50;99.90;;;;;;4875351;29;20237;-89
2022/10/15 01:59:24;;;;;;;21.85;10.63;;;12.60;99.90;;;;;;4872500;29;20045;-87
2022/10/15 02:01:50;;;;;;;16.05;9.40;;;12.10;99.90;;;;;;4927436;28;20483;-88
2022/10/15 02:04:22;;;;;;;17.77;9.75;;;13.00;99.90;;;;;;4979383;28;20049;-87
2022/10/15 02:06:56;;;;;;;13.43;7.68;;;12.90;99.90;;;;;;4964330;28;20102;-86
2022/10/15 02:09:51;;;;;;;13.35;7.65;;;12.40;99.90;;;;;;4969419;28;20105;-87
2022/10/15 02:12:36;;;;;;;18.80;9.07;;;12.40;99.90;;;;;;4914785;29;20063;-87
2022/10/15 02:15:10;;;;;;;17.65;9.20;;;12.50;99.90;;;;;;4905190;29;20074;-86
2022/10/15 02:18:09;;;;;;;15.25;8.23;;;12.40;99.90;;;;;;4928034;29;20422;-86
2022/10/15 02:20:40;;;;;;;16.23;9.20;;;12.40;99.90;;;;;;4915306;29;20055;-86
2022/10/15 02:23:40;;;;;;;21.63;10.55;;;12.90;99.90;;;;;;4927748;29;20052;-88
2022/10/15 02:26:08;;;;;;;22.73;10.88;;;12.40;99.90;;;;;;4848949;29;20116;-87
2022/10/15 02:28:37;;;;;;;18.83;9.50;;;12.40;99.90;;;;;;4835815;29;20050;-87
2022/10/15 02:31:03;;;;;;;17.23;8.52;;;12.40;99.90;;;;;;4834337;29;20069;-88
2022/10/15 02:33:32;;;;;;;19.15;9.85;;;12.40;99.90;;;;;;4854813;29;20049;-86
2022/10/15 02:35:58;;;;;;;19.67;10.18;;;12.40;99.90;;;;;;4862752;29;20532;-86
2022/10/15 02:38:26;;;;;;;17.70;9.20;;;12.40;99.90;;;;;;4837120;29;20434;-88
2022/10/15 02:40:53;;;;;;;15.27;7.63;;;13.40;99.90;;;;;;4843888;29;20058;-87
2022/10/15 02:43:20;;;;;;;25.52;10.80;;;12.40;99.90;;;;;;4843906;29;20608;-87
2022/10/15 02:45:47;;;;;;;16.40;8.70;;;12.30;99.90;;;;;;4864102;29;20048;-87
2022/10/15 02:48:13;;;;;;;14.80;8.27;;;13.30;99.90;;;;;;4880804;29;20056;-89
2022/10/15 02:50:39;;;;;;;15.32;8.25;;;12.40;99.90;;;;;;4915528;29;20056;-88
2022/10/15 02:53:04;;;;;;;15.27;7.78;;;12.30;99.90;;;;;;4899559;29;20095;-87
2022/10/15 02:55:30;;;;;;;19.70;9.15;;;11.90;99.90;;;;;;4889034;29;20061;-87
2022/10/15 02:57:56;;;;;;;16.70;8.50;;;12.30;99.90;;;;;;4878233;29;20052;-88
2022/10/15 03:00:21;;;;;;;14.52;8.13;;;12.40;99.90;;;;;;4897673;29;20049;-87
2022/10/15 03:02:47;;;;;;;14.95;6.57;;;12.30;99.90;;;;;;4957272;28;20086;-87
2022/10/15 03:05:13;;;;;;;14.10;6.88;;;12.30;99.90;;;;;;5010019;28;20089;-87
2022/10/15 03:07:39;;;;;;;17.10;8.38;;;12.30;99.90;;;;;;4982028;28;20034;-88
2022/10/15 03:10:06;;;;;;;13.80;7.50;;;12.10;99.90;;;;;;4998586;28;20103;-87
2022/10/15 03:12:31;;;;;;;11.95;6.65;;;12.30;99.90;;;;;;4999020;28;20042;-86
2022/10/15 03:14:57;;;;;;;17.92;9.85;;;12.30;99.90;;;;;;4982302;28;20090;-87
2022/10/15 03:17:23;;;;;;;19.67;10.70;;;12.80;99.90;;;;;;4982260;28;20026;-87
2022/10/15 03:19:49;;;;;;;13.32;7.95;;;12.30;99.90;;;;;;4997609;28;20086;-88
2022/10/15 03:22:14;;;;;;;16.00;8.27;;;12.30;99.90;;;;;;4975512;28;20053;-87
2022/10/15 03:24:40;;;;;;;12.95;7.63;;;12.20;99.90;;;;;;4963757;28;20049;-88
2022/10/15 03:27:05;;;;;;;13.55;6.30;;;12.20;99.90;;;;;;4957277;28;20055;-87
2022/10/15 03:29:31;;;;;;;13.27;7.53;;;12.20;99.90;;;;;;4974362;28;20112;-87
2022/10/15 03:31:57;;;;;;;18.65;9.15;;;12.20;99.90;;;;;;4974532;28;20440;-88
2022/10/15 03:34:22;;;;;;;17.08;9.30;;;12.30;99.90;;;;;;4957082;28;20088;-90
2022/10/15 03:36:48;;;;;;;17.65;9.63;;;12.20;99.90;;;;;;4963896;28;20507;-87
2022/10/15 03:39:14;;;;;;;18.70;9.00;;;12.20;99.90;;;;;;4963842;28;20038;-92
2022/10/15 03:41:40;;;;;;;21.45;9.32;;;12.20;99.90;;;;;;4982104;28;20054;-87
2022/10/15 03:44:07;;;;;;;17.50;9.18;;;12.20;99.90;;;;;;4958785;28;20047;-89
2022/10/15 03:46:33;;;;;;;13.95;6.80;;;12.80;99.90;;;;;;4971090;28;20442;-87
2022/10/15 03:48:59;;;;;;;15.98;7.38;;;12.20;99.90;;;;;;4977741;28;20068;-88
2022/10/15 03:51:25;;;;;;;16.70;9.40;;;12.10;99.90;;;;;;4993151;28;20046;-86
2022/10/15 03:53:52;;;;;;;13.25;6.97;;;12.20;99.90;;;;;;4975057;28;20066;-87
2022/10/15 03:56:17;;;;;;;14.32;7.60;;;12.20;99.90;;;;;;4944965;28;20077;-89
2022/10/15 03:58:43;;;;;;;16.25;8.15;;;12.20;99.90;;;;;;4977423;28;20078;-86
2022/10/15 04:01:15;;;;;;;17.60;8.32;;;12.20;99.90;;;;;;4988182;28;20038;-87
2022/10/15 04:07:41;;;;;;;15.15;8.10;;;12.20;99.90;;;;;;4974809;28;20093;-86
2022/10/15 04:10:09;;;;;;;13.95;6.88;;;12.20;99.90;;;;;;4970913;28;20043;-87
2022/10/15 04:12:34;;;;;;;12.88;6.53;;;12.20;99.90;;;;;;4960019;28;20065;-87
2022/10/15 04:15:00;;;;;;;11.80;6.25;;;12.10;99.90;;;;;;4959947;28;20125;-90
2022/10/15 04:17:26;;;;;;;14.02;7.03;;;12.50;99.90;;;;;;4977901;28;20109;-88
2022/10/15 04:19:51;;;;;;;15.23;9.00;;;12.10;99.90;;;;;;4980114;28;20411;-87
2022/10/15 04:22:17;;;;;;;14.30;8.18;;;12.10;99.90;;;;;;4982455;28;20093;-87
2022/10/15 04:24:43;;;;;;;13.90;7.43;;;12.20;99.90;;;;;;4976365;28;20395;-88
2022/10/15 04:27:10;;;;;;;17.40;7.32;;;12.30;99.90;;;;;;4983847;28;20050;-89
2022/10/15 04:29:36;;;;;;;12.23;6.47;;;13.20;99.90;;;;;;4976807;28;20031;-86
2022/10/15 04:32:02;;;;;;;11.88;7.03;;;12.10;99.90;;;;;;4976617;28;20049;-86
2022/10/15 04:34:28;;;;;;;14.57;7.10;;;12.10;99.90;;;;;;4977021;28;20038;-86
2022/10/15 04:36:53;;;;;;;12.43;6.60;;;12.20;99.90;;;;;;4959983;28;20039;-87
2022/10/15 04:39:20;;;;;;;12.77;6.90;;;12.10;99.90;;;;;;4977647;28;20093;-87
2022/10/15 04:41:46;;;;;;;13.63;6.57;;;12.10;99.90;;;;;;4962295;28;20039;-87
2022/10/15 04:44:12;;;;;;;14.40;7.28;;;12.10;99.90;;;;;;4959680;28;20050;-87
2022/10/15 04:46:38;;;;;;;19.50;9.30;;;12.10;99.90;;;;;;4959757;28;20225;-87
2022/10/15 04:49:03;;;;;;;23.50;11.07;;;12.60;99.90;;;;;;4966982;28;20047;-86
2022/10/15 04:51:29;;;;;;;19.35;10.23;;;12.20;99.90;;;;;;4976696;28;20125;-86
2022/10/15 04:53:55;;;;;;;17.13;8.95;;;12.20;99.90;;;;;;4976857;28;20042;-91
2022/10/15 04:56:21;;;;;;;18.83;7.90;;;12.10;99.90;;;;;;4963019;28;20046;-87
2022/10/15 04:58:48;;;;;;;16.08;8.25;;;12.40;99.90;;;;;;4961481;28;20086;-87
2022/10/15 05:01:16;;;;;;;16.65;8.80;;;12.60;99.90;;;;;;4965313;28;20043;-90
2022/10/15 05:03:45;;;;;;;16.15;7.20;;;12.20;99.90;;;;;;4959070;28;20093;-91
2022/10/15 05:06:14;;;;;;;18.55;9.07;;;12.20;99.90;;;;;;4970757;28;20063;-89
2022/10/15 05:08:40;;;;;;;14.80;7.05;;;12.20;99.90;;;;;;4970252;28;20074;-90
2022/10/15 05:11:12;;;;;;;14.75;7.88;;;12.20;99.90;;;;;;4958686;28;20038;-88
2022/10/15 05:13:38;;;;;;;16.08;7.20;;;12.20;99.90;;;;;;4958726;28;20039;-90
2022/10/15 05:16:17;;;;;;;14.20;7.93;;;12.20;99.90;;;;;;4959512;28;20097;-88
2022/10/15 05:18:45;;;;;;;14.82;7.72;;;12.20;99.90;;;;;;4976390;28;20055;-90
2022/10/15 05:21:12;;;;;;;17.95;9.63;;;12.20;99.90;;;;;;4960657;28;20054;-89
2022/10/15 05:23:38;;;;;;;14.93;7.65;;;12.30;99.90;;;;;;4962916;28;20104;-88
2022/10/15 05:26:07;;;;;;;14.82;7.53;;;12.20;99.90;;;;;;4958377;28;20498;-88
2022/10/15 05:28:33;;;;;;;12.07;6.50;;;12.20;99.90;;;;;;4959032;28;20491;-88
2022/10/15 05:31:11;;;;;;;14.60;7.07;;;13.00;99.90;;;;;;4958467;28;20054;-88
2022/10/15 05:33:37;;;;;;;13.00;6.65;;;12.20;99.90;;;;;;4958631;28;20391;-90
2022/10/15 05:36:18;;;;;;;12.40;6.18;;;12.20;99.90;;;;;;4976163;28;20042;-88
2022/10/15 05:38:51;;;;;;;15.43;7.72;;;12.20;99.90;;;;;;4981220;28;20042;-89
2022/10/15 05:41:17;;;;;;;14.48;6.65;;;12.10;99.90;;;;;;4958395;28;20046;-89
2022/10/15 05:43:46;;;;;;;11.57;6.05;;;12.20;99.90;;;;;;4958477;28;20395;-91
2022/10/15 05:46:12;;;;;;;12.23;6.93;;;12.10;99.90;;;;;;4976613;28;20053;-89
2022/10/15 05:48:37;;;;;;;11.00;6.22;;;12.10;99.90;;;;;;4975716;28;20039;-87
2022/10/15 05:51:06;;;;;;;12.23;7.30;;;12.10;99.90;;;;;;4966619;28;20101;-89
2022/10/15 05:53:32;;;;;;;11.18;6.18;;;11.90;99.90;;;;;;4958205;28;20097;-87
2022/10/15 05:55:58;;;;;;;11.30;6.47;;;12.10;99.90;;;;;;4959847;28;20050;-89
2022/10/15 05:58:28;;;;;;;12.18;6.13;;;12.10;99.90;;;;;;4973205;28;20057;-89
2022/10/15 06:00:58;;;;;;;13.43;6.53;;;12.10;99.90;;;;;;4974228;28;20060;-88
2022/10/15 06:03:24;;;;;;;12.35;5.55;;;12.10;99.90;;;;;;4975852;28;20058;-90
2022/10/15 06:05:50;;;;;;;11.45;6.25;;;11.60;99.90;;;;;;4976361;28;20391;-89
2022/10/15 06:08:17;;;;;;;14.52;7.43;;;12.50;99.90;;;;;;4957813;28;20555;-87
2022/10/15 06:10:43;;;;;;;18.35;9.02;;;12.10;99.90;;;;;;4974759;28;20483;-87
2022/10/15 06:13:09;;;;;;;16.25;9.05;;;12.40;99.90;;;;;;4957858;28;20042;-87
2022/10/15 06:15:39;;;;;;;14.25;7.03;;;12.10;99.90;;;;;;4964754;28;20054;-88
2022/10/15 06:18:05;;;;;;;13.98;6.68;;;12.10;99.90;;;;;;4968666;28;20125;-88
2022/10/15 06:20:30;;;;;;;12.32;6.53;;;12.10;99.90;;;;;;4982471;28;20125;-88
2022/10/15 06:22:57;;;;;;;15.60;6.75;;;12.10;99.90;;;;;;4957590;28;20451;-88
2022/10/15 06:25:24;;;;;;;14.52;7.55;;;12.10;99.90;;;;;;4957041;28;20051;-89
2022/10/15 06:27:49;;;;;;;13.02;6.38;;;12.10;99.90;;;;;;4981733;28;20081;-88
2022/10/15 06:30:15;;;;;;;16.17;8.35;;;12.10;99.90;;;;;;4975642;28;20110;-88
2022/10/15 06:32:52;;;;;;;21.17;9.25;;;12.10;99.90;;;;;;4957846;28;20507;-91
2022/10/15 06:35:20;;;;;;;18.92;9.30;;;12.10;99.90;;;;;;4958858;28;20049;-88
2022/10/15 06:37:46;;;;;;;20.55;10.10;;;12.10;99.90;;;;;;4957497;28;20479;-88
2022/10/15 06:40:12;;;;;;;17.40;8.93;;;12.60;99.90;;;;;;4957968;28;20191;-90
2022/10/15 06:42:39;;;;;;;21.60;11.85;;;12.20;99.90;;;;;;4957622;28;20054;-88
2022/10/15 06:45:05;;;;;;;19.73;10.07;;;12.70;99.90;;;;;;4957582;28;20051;-88
2022/10/15 06:47:31;;;;;;;17.48;8.07;;;12.20;99.90;;;;;;4957228;28;20042;-89
2022/10/15 06:49:57;;;;;;;20.67;9.55;;;12.20;99.90;;;;;;4987568;28;20051;-90
2022/10/15 06:52:23;;;;;;;15.63;8.20;;;12.20;99.90;;;;;;4971826;28;20035;-88
2022/10/15 06:55:00;;;;;;;14.18;7.10;;;12.20;99.90;;;;;;4990036;23;20058;-91
2022/10/15 06:57:29;;;;;;;14.05;7.22;;;12.20;99.90;;;;;;5012679;28;20514;-87
2022/10/15 06:59:57;;;;;;;15.45;8.00;;;12.20;99.90;;;;;;5020046;28;20046;-88
2022/10/15 07:02:23;;;;;;;20.38;9.95;;;12.40;99.90;;;;;;4996842;28;20100;-89
2022/10/15 07:08:32;;;;;;;13.18;7.40;;;12.30;99.90;;;;;;5015634;28;20044;-88
2022/10/15 07:11:00;;;;;;;17.63;7.63;;;12.30;99.90;;;;;;5013626;28;20045;-89
2022/10/15 07:13:25;;;;;;;20.23;8.80;;;12.30;99.90;;;;;;4996635;28;20041;-89
2022/10/15 07:15:54;;;;;;;23.15;11.35;;;12.30;99.90;;;;;;4995053;28;20397;-88
2022/10/15 07:18:20;;;;;;;24.33;10.68;;;12.40;99.90;;;;;;4994719;28;20046;-91
2022/10/15 07:20:46;;;;;;;19.88;10.23;;;12.40;99.90;;;;;;5013280;28;20433;-90
2022/10/15 07:23:12;;;;;;;19.75;9.18;;;12.40;99.90;;;;;;4996321;28;20042;-92
2022/10/15 07:25:38;;;;;;;22.33;10.45;;;12.70;99.90;;;;;;5012528;28;20064;-91
2022/10/15 07:28:04;;;;;;;20.30;9.75;;;12.40;99.90;;;;;;4995779;28;20437;-90
2022/10/15 07:30:31;;;;;;;28.27;13.45;;;11.80;99.90;;;;;;4995885;28;20077;-92
2022/10/15 07:32:58;;;;;;;27.15;14.40;;;12.50;99.90;;;;;;5020828;28;20502;-89
2022/10/15 07:39:05;;;;;;;24.63;11.68;;;12.60;99.90;;;;;;5014707;28;20084;-88
2022/10/15 07:41:31;;;;;;;22.38;10.65;;;12.60;99.90;;;;;;5013140;28;20038;-91
2022/10/15 07:43:56;;;;;;;24.67;11.18;;;12.60;99.90;;;;;;5013452;28;20042;-92
2022/10/15 07:46:25;;;;;;;21.73;11.73;;;12.60;99.90;;;;;;4995602;28;20511;-88
2022/10/15 07:48:51;;;;;;;21.67;10.90;;;12.70;99.90;;;;;;5014409;28;20056;-89
2022/10/15 07:51:17;;;;;;;24.05;11.93;;;12.70;99.90;;;;;;5000038;28;20045;-91
2022/10/15 07:53:43;;;;;;;23.17;11.00;;;12.80;99.90;;;;;;4996586;28;20046;-91
2022/10/15 07:56:11;;;;;;;24.98;11.95;;;12.70;99.90;;;;;;5003440;28;20050;-92
2022/10/15 07:58:38;;;;;;;23.17;11.63;;;12.80;99.90;;;;;;5012742;28;20125;-89
2022/10/15 08:01:09;;;;;;;22.88;11.98;;;12.90;99.90;;;;;;5014674;28;20042;-93
2022/10/15 08:03:35;;;;;;;20.60;10.15;;;13.00;99.90;;;;;;5014458;28;20112;-88
2022/10/15 08:06:05;;;;;;;23.58;11.35;;;13.30;99.90;;;;;;5014442;28;20049;-90
2022/10/15 08:08:35;;;;;;;22.83;11.45;;;13.10;99.90;;;;;;5001617;28;20095;-90
2022/10/15 08:11:09;;;;;;;23.52;11.20;;;13.20;99.90;;;;;;5016109;28;20037;-87
2022/10/15 08:13:35;;;;;;;24.58;12.73;;;13.30;99.90;;;;;;4996416;28;20038;-89
2022/10/15 08:16:00;;;;;;;24.98;12.27;;;13.30;99.90;;;;;;5013369;28;20042;-86
2022/10/15 08:18:29;;;;;;;31.42;14.02;;;13.30;99.90;;;;;;5013636;28;20034;-92
2022/10/15 08:20:59;;;;;;;28.52;13.45;;;13.50;99.90;;;;;;5012282;28;20061;-92
2022/10/15 08:23:25;;;;;;;27.45;14.48;;;13.50;99.90;;;;;;4994771;28;20104;-85
2022/10/15 08:25:50;;;;;;;27.45;14.35;;;13.60;99.90;;;;;;5015634;28;20042;-88
2022/10/15 08:28:16;;;;;;;36.47;15.93;;;13.60;99.90;;;;;;5012747;28;20034;-88
2022/10/15 08:30:42;;;;;;;33.08;16.23;;;13.70;99.90;;;;;;4997481;28;20053;-89
2022/10/15 08:33:07;;;;;;;26.02;13.15;;;14.20;99.90;;;;;;5016112;28;20044;-88
2022/10/15 08:35:35;;;;;;;24.13;12.05;;;13.80;99.90;;;;;;4998711;28;20038;-85
2022/10/15 08:38:02;;;;;;;32.55;15.93;;;14.60;99.90;;;;;;5016154;28;20181;-89
2022/10/15 08:40:29;;;;;;;32.45;15.63;;;14.10;99.90;;;;;;5024515;28;20401;-88
2022/10/15 08:42:55;;;;;;;29.58;14.80;;;14.30;99.90;;;;;;5035913;28;20153;-85
2022/10/15 08:45:33;;;;;;;32.42;17.45;;;14.00;99.90;;;;;;5018051;28;20147;-89
2022/10/15 08:48:06;;;;;;;31.08;15.95;;;14.00;99.90;;;;;;5034080;28;20482;-85
2022/10/15 08:50:40;;;;;;;33.00;15.73;;;14.00;99.90;;;;;;4999499;28;20042;-86
2022/10/15 08:53:21;;;;;;;30.75;16.20;;;14.10;99.90;;;;;;5015607;28;20042;-86
2022/10/15 08:55:50;;;;;;;32.03;14.80;;;14.00;99.90;;;;;;5023119;28;20054;-86
2022/10/15 08:58:44;;;;;;;27.88;14.05;;;14.00;99.90;;;;;;5016437;28;20046;-86
2022/10/15 09:01:28;;;;;;;31.65;15.73;;;14.20;99.90;;;;;;5015597;28;20042;-87
2022/10/15 09:04:03;;;;;;;28.52;14.02;;;14.20;99.90;;;;;;5015711;28;20041;-87
2022/10/15 09:06:39;;;;;;;27.45;13.65;;;14.20;99.90;;;;;;5015603;28;20446;-86
2022/10/15 09:09:10;;;;;;;26.77;15.18;;;14.30;99.90;;;;;;4999082;28;20536;-86
2022/10/15 09:11:57;;;;;;;25.05;13.13;;;14.40;99.90;;;;;;5015524;28;20050;-87
2022/10/15 09:14:37;;;;;;;24.88;14.02;;;14.40;99.90;;;;;;5015501;28;20375;-85
2022/10/15 09:17:06;;;;;;;25.67;12.68;;;14.40;99.90;;;;;;5014293;28;20045;-86
2022/10/15 09:19:35;;;;;;;26.70;13.20;;;14.70;99.90;;;;;;4998781;28;20050;-86
2022/10/15 09:22:04;;;;;;;25.33;12.60;;;14.40;99.90;;;;;;5015270;28;20046;-86
2022/10/15 09:24:30;;;;;;;28.67;14.07;;;14.60;99.90;;;;;;5015150;28;20038;-85
2022/10/15 09:27:02;;;;;;;33.85;16.88;;;14.70;99.90;;;;;;4997638;28;20053;-86
2022/10/15 09:29:39;;;;;;;28.08;14.70;;;14.80;99.90;;;;;;5015545;28;20390;-86
2022/10/15 09:32:20;;;;;;;28.58;14.93;;;14.70;99.90;;;;;;4997729;28;20076;-86
2022/10/15 09:34:59;;;;;;;29.38;15.82;;;14.70;99.90;;;;;;4997717;28;20390;-87
2022/10/15 09:37:27;;;;;;;29.13;15.02;;;14.80;99.90;;;;;;4997249;28;20128;-85
2022/10/15 09:39:55;;;;;;;34.38;16.38;;;14.70;99.90;;;;;;5015716;28;20053;-86
2022/10/15 09:42:37;;;;;;;21.50;12.10;;;14.70;99.90;;;;;;4996409;28;20069;-86
2022/10/15 09:45:06;;;;;;;28.67;14.75;;;14.70;99.90;;;;;;5014919;28;20057;-86
2022/10/15 09:47:34;;;;;;;26.58;12.65;;;14.90;99.90;;;;;;5014739;28;20046;-86
2022/10/15 09:50:02;;;;;;;26.08;12.73;;;14.80;99.90;;;;;;5015153;28;20050;-85
2022/10/15 09:52:49;;;;;;;25.63;13.10;;;14.90;99.90;;;;;;5013185;28;20447;-87
2022/10/15 09:55:46;;;;;;;25.85;12.15;;;14.90;99.90;;;;;;4996631;28;20145;-87
2022/10/15 09:58:25;;;;;;;23.17;12.05;;;14.80;99.90;;;;;;5014811;28;20078;-86
2022/10/15 10:01:00;;;;;;;20.90;10.82;;;14.70;99.90;;;;;;5014625;28;20045;-86
2022/10/15 10:03:28;;;;;;;25.08;11.23;;;14.70;99.90;;;;;;5014547;28;20050;-85
2022/10/15 10:06:10;;;;;;;22.75;11.48;;;14.60;99.90;;;;;;5014067;28;20509;-85
2022/10/15 10:08:56;;;;;;;20.83;10.27;;;14.60;99.90;;;;;;5014747;28;20056;-85
2022/10/15 10:11:24;;;;;;;21.67;9.88;;;14.50;99.90;;;;;;5014412;28;20046;-84
2022/10/15 10:13:57;;;;;;;23.58;12.13;;;14.40;99.90;;;;;;5014154;28;20065;-84
2022/10/15 10:16:24;;;;;;;21.60;11.10;;;14.40;99.90;;;;;;5014086;28;20057;-85
2022/10/15 10:19:13;;;;;;;20.52;11.27;;;14.40;99.90;;;;;;5013867;28;20376;-86
2022/10/15 10:21:41;;;;;;;20.17;10.25;;;14.30;99.90;;;;;;5014058;28;20169;-84
2022/10/15 10:24:29;;;;;;;26.88;13.27;;;14.30;99.90;;;;;;5013649;28;20038;-86
2022/10/15 10:26:56;;;;;;;24.85;11.52;;;14.30;99.90;;;;;;5013644;28;20052;-85
2022/10/15 10:29:22;;;;;;;31.42;13.75;;;14.20;99.90;;;;;;5015013;28;20092;-87
2022/10/15 10:31:50;;;;;;;23.83;12.13;;;14.20;99.90;;;;;;5013808;28;20044;-87
2022/10/15 10:34:26;;;;;;;25.20;10.65;;;14.10;99.90;;;;;;5013584;28;20038;-87
2022/10/15 10:36:52;;;;;;;;;;;14.10;99.90;;;;;;5014219;28;20037;-87
2022/10/15 10:39:26;;;;;;;23.05;11.40;;;14.20;99.90;;;;;;5014322;28;20358;-86
2022/10/15 10:41:59;;;;;;;20.33;9.48;;;14.20;99.90;;;;;;4996556;28;20053;-87
2022/10/15 10:44:31;;;;;;;15.20;7.40;;;14.20;99.90;;;;;;5013426;28;20052;-85
2022/10/15 10:47:07;;;;;;;16.50;7.93;;;14.30;99.90;;;;;;5013126;28;20387;-86
2022/10/15 10:49:36;;;;;;;16.63;8.15;;;14.30;99.90;;;;;;5013997;28;20045;-87
2022/10/15 10:52:03;;;;;;;17.02;8.23;;;14.40;99.90;;;;;;5013457;28;20108;-87
2022/10/15 10:54:30;;;;;;;19.55;9.70;;;14.60;99.90;;;;;;4997427;28;20053;-87
2022/10/15 10:56:58;;;;;;;14.20;7.70;;;14.40;99.90;;;;;;5012854;28;20054;-87
2022/10/15 10:59:47;;;;;;;13.88;6.35;;;14.70;99.90;;;;;;5013432;28;20058;-87
2022/10/15 11:02:12;;;;;;;11.30;5.68;;;14.80;99.90;;;;;;5000214;28;20421;-85
2022/10/15 11:04:39;;;;;;;13.05;5.72;;;14.90;99.90;;;;;;5013023;28;20041;-87
2022/10/15 11:07:07;;;;;;;15.10;5.75;;;15.60;99.90;;;;;;5013186;28;20045;-87
2022/10/15 11:09:42;;;;;;;13.35;6.30;;;15.00;99.90;;;;;;5013571;28;20374;-86
2022/10/15 11:12:34;;;;;;;11.95;5.57;;;15.00;99.90;;;;;;5013026;28;20046;-88
2022/10/15 11:15:32;;;;;;;12.77;5.68;;;15.10;99.90;;;;;;5013083;28;20042;-87
2022/10/15 11:18:13;;;;;;;11.30;6.25;;;15.00;99.90;;;;;;5003208;28;20042;-86
2022/10/15 11:21:16;;;;;;;14.95;7.30;;;15.00;99.90;;;;;;4995538;28;20100;-87
2022/10/15 11:23:47;;;;;;;10.95;5.75;;;15.00;99.90;;;;;;5012689;28;20054;-86
2022/10/15 11:26:21;;;;;;;13.27;6.90;;;15.00;99.90;;;;;;4995066;28;20060;-87
2022/10/15 11:29:03;;;;;;;15.90;6.63;;;15.10;99.90;;;;;;5021572;28;20038;-86
2022/10/15 11:31:36;;;;;;;14.57;5.38;;;15.10;99.90;;;;;;5012805;28;20045;-86
2022/10/15 11:34:23;;;;;;;10.43;4.47;;;15.20;99.90;;;;;;5012952;28;20378;-87
2022/10/15 11:37:06;;;;;;;12.98;6.55;;;15.30;99.90;;;;;;5012422;28;20049;-87
2022/10/15 11:39:59;;;;;;;7.45;3.72;;;15.40;99.90;;;;;;5013505;28;20080;-86
2022/10/15 11:42:48;;;;;;;6.53;3.53;;;15.30;99.90;;;;;;5012764;28;20038;-87
2022/10/15 11:45:37;;;;;;;9.30;4.43;;;15.40;99.90;;;;;;4995407;28;20038;-86
2022/10/15 11:48:39;;;;;;;9.43;4.10;;;15.50;99.90;;;;;;5012679;28;20042;-88
2022/10/15 11:51:19;;;;;;;10.02;5.38;;;15.50;99.90;;;;;;5018993;28;20042;-87
2022/10/15 11:53:47;;;;;;;10.75;4.95;;;15.60;99.90;;;;;;5012261;28;20109;-86
2022/10/15 11:56:21;;;;;;;7.95;4.07;;;15.60;99.90;;;;;;5012060;28;20061;-86
2022/10/15 11:58:51;;;;;;;8.35;4.40;;;15.60;99.90;;;;;;5012553;28;20042;-86
2022/10/15 12:01:35;;;;;;;8.50;4.22;;;15.60;99.90;;;;;;5018783;28;20041;-86
2022/10/15 12:04:29;;;;;;;7.45;4.35;;;15.60;99.90;;;;;;5012324;28;20056;-85
2022/10/15 12:06:57;;;;;;;7.47;4.00;;;15.60;99.90;;;;;;5015661;28;20054;-86
2022/10/15 12:09:31;;;;;;;8.35;4.93;;;15.70;99.90;;;;;;5016560;28;20034;-86
2022/10/15 12:11:57;;;;;;;10.18;4.50;;;15.70;99.90;;;;;;5015963;28;20046;-86
2022/10/15 12:14:33;;;;;;;7.97;3.95;;;15.70;99.90;;;;;;5016182;28;20096;-85
2022/10/15 12:17:19;;;;;;;6.80;3.80;;;15.70;99.90;;;;;;5015706;28;20049;-85
2022/10/15 12:19:57;;;;;;;6.88;3.05;;;15.70;99.90;;;;;;4999223;28;20038;-85
2022/10/15 12:22:38;;;;;;;6.97;3.65;;;15.80;99.90;;;;;;5015188;28;20445;-85
2022/10/15 12:25:05;;;;;;;7.53;3.63;;;15.80;99.90;;;;;;5015403;28;20047;-85
2022/10/15 12:27:35;;;;;;;9.82;4.93;;;15.80;99.90;;;;;;5015644;28;20038;-86
2022/10/15 12:30:06;;;;;;;7.05;3.78;;;15.80;99.90;;;;;;4998860;28;20042;-86
2022/10/15 12:32:47;;;;;;;9.90;4.60;;;15.70;99.90;;;;;;4998571;28;20108;-86
2022/10/15 12:35:22;;;;;;;6.80;4.03;;;15.70;99.90;;;;;;4998156;28;20127;-85
2022/10/15 12:37:49;;;;;;;5.75;3.47;;;15.70;99.90;;;;;;5015809;28;20073;-85
2022/10/15 12:40:21;;;;;;;6.65;3.83;;;15.60;99.90;;;;;;4998860;28;20122;-86
2022/10/15 12:42:57;;;;;;;9.77;3.85;;;15.60;99.90;;;;;;5015890;28;20072;-85
2022/10/15 12:45:39;;;;;;;6.22;3.45;;;15.60;99.90;;;;;;5015557;28;20125;-85
2022/10/15 12:48:05;;;;;;;6.50;3.45;;;15.60;99.90;;;;;;5016044;28;20052;-86
2022/10/15 12:50:33;;;;;;;6.05;3.13;;;15.60;99.90;;;;;;5016054;28;20125;-86
2022/10/15 12:53:27;;;;;;;5.63;3.20;;;15.70;99.90;;;;;;5015696;28;20056;-86
2022/10/15 12:56:14;;;;;;;5.97;2.85;;;15.70;99.90;;;;;;5022976;28;20057;-85
2022/10/15 12:58:50;;;;;;;7.55;2.83;;;15.80;99.90;;;;;;5015597;28;20073;-84
2022/10/15 13:01:18;;;;;;;5.78;2.78;;;15.80;99.90;;;;;;5013889;28;20429;-84
2022/10/15 13:03:49;;;;;;;6.38;3.03;;;15.80;99.90;;;;;;5015348;28;20497;-86
2022/10/15 13:06:21;;;;;;;6.28;3.25;;;15.80;99.90;;;;;;5022505;28;20560;-84
2022/10/15 13:08:50;;;;;;;7.15;2.80;;;15.80;99.90;;;;;;5015058;28;20050;-84
2022/10/15 13:11:25;;;;;;;7.38;3.33;;;15.70;99.90;;;;;;5014998;28;20042;-84
2022/10/15 13:14:14;;;;;;;7.55;3.50;;;15.60;99.90;;;;;;5015198;28;20522;-85